Time;durP1;ratioP1;P1;durP2;ratioP2;P2;SDS_P1;SDS_P2;PMS_P1;PMS_P2;Temp;Humidity;BMP_temperature;BMP_pressure;BME280_temperature;BME280_humidity;BME280_pressure;Samples;Min_cycle;Max_cycle;Signal;HPM_P1;HPM_P2
2021/08/04 00:00:33;;;;;;;0.47;0.47;;;21.70;70.80;;;;;;5013371;28;20120;-59
2021/08/04 00:02:59;;;;;;;0.40;0.40;;;21.70;70.80;;;;;;5017111;28;20066;-58
2021/08/04 00:05:25;;;;;;;0.50;0.50;;;21.70;70.80;;;;;;5016950;28;20507;-58
2021/08/04 00:07:50;;;;;;;0.47;0.47;;;21.70;70.80;;;;;;5016556;28;20046;-54
2021/08/04 00:10:17;;;;;;;0.60;0.50;;;21.70;70.80;;;;;;5016041;28;20045;-59
2021/08/04 00:12:43;;;;;;;0.60;0.60;;;21.70;70.80;;;;;;5015587;28;20099;-56
2021/08/04 00:15:11;;;;;;;0.60;0.60;;;21.70;70.80;;;;;;5016158;28;20128;-53
2021/08/04 00:17:37;;;;;;;0.63;0.47;;;21.70;70.80;;;;;;5016744;28;20049;-58
2021/08/04 00:20:04;;;;;;;0.88;0.47;;;21.70;70.80;;;;;;5016145;28;20172;-59
2021/08/04 00:22:30;;;;;;;0.75;0.50;;;21.70;70.80;;;;;;5016059;28;20050;-55
2021/08/04 00:24:56;;;;;;;0.45;0.45;;;21.60;70.80;;;;;;5016111;28;20049;-59
2021/08/04 00:27:24;;;;;;;0.47;0.47;;;21.70;70.90;;;;;;5016318;28;20414;-59
2021/08/04 00:29:50;;;;;;;0.65;0.47;;;21.70;70.80;;;;;;5015742;28;20568;-56
2021/08/04 00:32:15;;;;;;;0.40;0.40;;;21.60;70.80;;;;;;5015044;28;20085;-57
2021/08/04 00:34:41;;;;;;;0.32;0.30;;;21.70;70.90;;;;;;5016268;28;20045;-53
2021/08/04 00:37:06;;;;;;;0.55;0.40;;;21.70;70.90;;;;;;5016311;28;20050;-60
2021/08/04 00:39:32;;;;;;;0.60;0.50;;;21.70;70.90;;;;;;5015700;28;20566;-55
2021/08/04 00:41:59;;;;;;;0.43;0.43;;;21.70;70.90;;;;;;5015527;28;20050;-53
2021/08/04 00:44:25;;;;;;;0.40;0.40;;;21.60;70.90;;;;;;5016146;28;20050;-52
2021/08/04 00:46:51;;;;;;;0.50;0.40;;;21.60;70.90;;;;;;5015970;28;20045;-53
2021/08/04 00:49:17;;;;;;;0.73;0.52;;;21.60;70.80;;;;;;5015618;28;20157;-52
2021/08/04 00:51:42;;;;;;;0.43;0.43;;;21.60;71.50;;;;;;5015371;28;20046;-54
2021/08/04 00:54:08;;;;;;;0.52;0.50;;;21.60;70.90;;;;;;5015874;28;20042;-52
2021/08/04 00:56:35;;;;;;;0.40;0.40;;;21.60;70.90;;;;;;5015530;28;20517;-53
2021/08/04 00:59:02;;;;;;;0.60;0.60;;;21.60;70.90;;;;;;5015249;28;20388;-52
2021/08/04 01:01:34;;;;;;;0.80;0.50;;;21.60;70.90;;;;;;5015438;28;20379;-52
2021/08/04 01:04:09;;;;;;;0.40;0.40;;;21.60;70.90;;;;;;4996343;28;20057;-53
2021/08/04 01:06:55;;;;;;;0.73;0.73;;;21.60;70.90;;;;;;4995971;28;20100;-53
2021/08/04 01:09:23;;;;;;;0.50;0.50;;;21.60;70.90;;;;;;5001293;28;20514;-52
2021/08/04 01:11:55;;;;;;;0.40;0.40;;;21.60;70.90;;;;;;5014897;28;20049;-56
2021/08/04 01:14:25;;;;;;;0.50;0.45;;;21.60;70.90;;;;;;5014468;28;20050;-53
2021/08/04 01:16:52;;;;;;;0.43;0.43;;;21.60;70.90;;;;;;5015271;28;20112;-52
2021/08/04 01:19:36;;;;;;;0.55;0.40;;;21.60;70.90;;;;;;5015122;28;20410;-49
2021/08/04 01:22:07;;;;;;;0.30;0.30;;;21.60;70.90;;;;;;5015341;28;20046;-53
2021/08/04 01:24:41;;;;;;;0.50;0.50;;;21.60;71.10;;;;;;5014724;28;20107;-54
2021/08/04 01:27:12;;;;;;;0.55;0.55;;;21.60;71.00;;;;;;5015327;28;20054;-55
2021/08/04 01:29:39;;;;;;;0.40;0.40;;;21.60;71.00;;;;;;5014425;28;20564;-56
2021/08/04 01:32:06;;;;;;;0.38;0.38;;;21.60;71.00;;;;;;5015101;28;20458;-55
2021/08/04 01:34:35;;;;;;;0.40;0.40;;;21.60;71.00;;;;;;5014750;28;20080;-52
2021/08/04 01:37:02;;;;;;;0.47;0.47;;;21.60;71.10;;;;;;5015064;28;20046;-52
2021/08/04 01:39:29;;;;;;;0.70;0.70;;;21.60;71.00;;;;;;5014605;28;20107;-53
2021/08/04 01:41:56;;;;;;;0.40;0.40;;;21.60;71.00;;;;;;5014980;28;20080;-51
2021/08/04 01:44:23;;;;;;;0.50;0.35;;;21.50;70.90;;;;;;5014201;28;20479;-53
2021/08/04 01:46:50;;;;;;;0.30;0.30;;;21.60;71.00;;;;;;5014954;28;20056;-52
2021/08/04 01:49:16;;;;;;;0.60;0.52;;;21.60;71.00;;;;;;5014804;28;20069;-50
2021/08/04 01:51:44;;;;;;;0.80;0.60;;;21.50;70.90;;;;;;5014380;28;20046;-53
2021/08/04 01:54:11;;;;;;;0.60;0.60;;;21.50;71.00;;;;;;5014763;28;20053;-52
2021/08/04 01:56:38;;;;;;;0.45;0.45;;;21.50;70.90;;;;;;5014557;28;20092;-53
2021/08/04 01:59:03;;;;;;;0.50;0.50;;;21.50;70.90;;;;;;5014542;28;20128;-51
2021/08/04 02:01:29;;;;;;;0.43;0.40;;;21.50;71.00;;;;;;5013916;28;20124;-53
2021/08/04 02:03:55;;;;;;;0.55;0.47;;;21.50;71.00;;;;;;5014530;28;20057;-53
2021/08/04 02:06:30;;;;;;;0.50;0.50;;;21.60;71.00;;;;;;5014295;28;20505;-50
2021/08/04 02:09:26;;;;;;;0.40;0.40;;;21.50;71.00;;;;;;5014729;28;20108;-54
2021/08/04 02:12:07;;;;;;;0.68;0.57;;;21.50;71.00;;;;;;5014060;28;20069;-51
2021/08/04 02:14:48;;;;;;;0.50;0.50;;;21.50;71.00;;;;;;5014272;28;20057;-51
2021/08/04 02:17:13;;;;;;;0.43;0.30;;;21.50;71.00;;;;;;5013453;28;20049;-52
2021/08/04 02:19:44;;;;;;;0.35;0.35;;;21.50;71.00;;;;;;5014185;28;20073;-51
2021/08/04 02:22:18;;;;;;;1.08;0.55;;;21.50;71.10;;;;;;5013803;28;20046;-53
2021/08/04 02:24:49;;;;;;;0.32;0.32;;;21.40;71.00;;;;;;5013484;28;20049;-51
2021/08/04 02:27:15;;;;;;;0.35;0.30;;;21.50;71.10;;;;;;5013889;28;20045;-52
2021/08/04 02:29:43;;;;;;;0.60;0.60;;;21.50;71.10;;;;;;5013905;28;20462;-56
2021/08/04 02:32:09;;;;;;;0.57;0.57;;;21.50;71.10;;;;;;5013464;28;20050;-51
2021/08/04 02:34:35;;;;;;;0.50;0.50;;;21.50;71.10;;;;;;5014084;28;20057;-52
2021/08/04 02:37:01;;;;;;;0.50;0.50;;;21.50;71.10;;;;;;5014151;28;20073;-54
2021/08/04 02:39:27;;;;;;;0.40;0.40;;;21.50;71.10;;;;;;5013646;28;20054;-54
2021/08/04 02:41:53;;;;;;;0.57;0.57;;;21.50;71.10;;;;;;5013618;28;20465;-52
2021/08/04 02:44:20;;;;;;;0.63;0.45;;;21.50;71.10;;;;;;5013776;28;20050;-53
2021/08/04 02:46:47;;;;;;;0.40;0.40;;;21.50;71.10;;;;;;5013737;28;20132;-51
2021/08/04 02:49:15;;;;;;;0.47;0.40;;;21.50;71.10;;;;;;5013518;28;20050;-52
2021/08/04 02:51:42;;;;;;;0.30;0.30;;;21.50;71.10;;;;;;5013715;28;20055;-50
2021/08/04 02:54:12;;;;;;;0.40;0.40;;;21.50;71.20;;;;;;5013702;28;20046;-53
2021/08/04 02:56:38;;;;;;;0.35;0.35;;;21.50;71.10;;;;;;5013775;28;20046;-49
2021/08/04 02:59:03;;;;;;;0.70;0.60;;;21.50;71.10;;;;;;5013126;28;20056;-55
2021/08/04 03:01:29;;;;;;;0.47;0.47;;;21.50;71.20;;;;;;5012337;28;20050;-57
2021/08/04 03:03:55;;;;;;;0.70;0.70;;;21.50;71.10;;;;;;5013361;28;20054;-55
2021/08/04 03:06:21;;;;;;;0.55;0.40;;;21.50;71.10;;;;;;5013599;28;20482;-55
2021/08/04 03:08:46;;;;;;;0.40;0.40;;;21.50;71.20;;;;;;5013534;28;20144;-60
2021/08/04 03:11:12;;;;;;;0.32;0.32;;;21.50;71.20;;;;;;5012675;28;20046;-54
2021/08/04 03:13:38;;;;;;;0.38;0.38;;;21.40;71.10;;;;;;5013326;28;20062;-58
2021/08/04 03:16:04;;;;;;;0.63;0.47;;;21.50;71.90;;;;;;5013403;28;20053;-53
2021/08/04 03:18:30;;;;;;;0.45;0.45;;;21.50;71.20;;;;;;5013064;28;20077;-52
2021/08/04 03:20:56;;;;;;;0.43;0.30;;;21.50;71.20;;;;;;5012628;28;20565;-53
2021/08/04 03:23:22;;;;;;;0.30;0.30;;;21.50;71.20;;;;;;5012738;28;20506;-53
2021/08/04 03:25:47;;;;;;;0.68;0.47;;;21.50;71.20;;;;;;5013240;28;20046;-55
2021/08/04 03:28:13;;;;;;;0.63;0.47;;;21.50;71.20;;;;;;5013294;28;20475;-52
2021/08/04 03:30:39;;;;;;;1.27;0.40;;;21.50;71.20;;;;;;5012740;28;20056;-53
2021/08/04 03:33:05;;;;;;;0.40;0.40;;;21.50;71.20;;;;;;5012782;28;20080;-53
2021/08/04 03:35:30;;;;;;;0.65;0.55;;;21.50;71.20;;;;;;5012580;28;20490;-53
2021/08/04 03:37:56;;;;;;;0.30;0.30;;;21.50;71.20;;;;;;5013089;28;20080;-52
2021/08/04 03:40:22;;;;;;;0.20;0.20;;;21.40;71.10;;;;;;5013238;28;20045;-53
2021/08/04 03:42:48;;;;;;;0.47;0.47;;;21.40;71.10;;;;;;5012462;28;20517;-60
2021/08/04 03:45:14;;;;;;;0.47;0.47;;;21.40;71.10;;;;;;5012755;28;20140;-55
2021/08/04 03:47:40;;;;;;;0.52;0.52;;;21.40;71.10;;;;;;5012995;28;20418;-57
2021/08/04 03:50:09;;;;;;;0.38;0.38;;;21.40;71.20;;;;;;5012565;28;20054;-59
2021/08/04 03:52:35;;;;;;;0.70;0.47;;;21.40;71.10;;;;;;5011791;28;20057;-58
2021/08/04 03:55:01;;;;;;;0.47;0.40;;;21.40;71.20;;;;;;5012210;28;20502;-59
2021/08/04 03:57:26;;;;;;;0.60;0.60;;;21.40;71.10;;;;;;5011847;28;20198;-55
2021/08/04 03:59:52;;;;;;;0.50;0.50;;;21.40;71.10;;;;;;5011994;28;20120;-58
2021/08/04 04:02:18;;;;;;;0.50;0.50;;;21.40;71.20;;;;;;5011712;28;20474;-58
2021/08/04 04:04:43;;;;;;;0.30;0.30;;;21.40;71.20;;;;;;5012637;28;20077;-58
2021/08/04 04:07:09;;;;;;;0.40;0.40;;;21.40;71.20;;;;;;5012482;28;20391;-58
2021/08/04 04:09:36;;;;;;;0.35;0.32;;;21.40;71.20;;;;;;5012805;28;20045;-60
2021/08/04 04:12:03;;;;;;;0.40;0.40;;;21.40;71.20;;;;;;5012530;28;20054;-56
2021/08/04 04:14:29;;;;;;;0.70;0.70;;;21.40;71.20;;;;;;5012329;28;20058;-57
2021/08/04 04:16:55;;;;;;;0.40;0.40;;;21.40;71.20;;;;;;5012657;28;20081;-59
2021/08/04 04:19:21;;;;;;;0.57;0.50;;;21.40;71.20;;;;;;5012622;28;20081;-56
2021/08/04 04:21:47;;;;;;;0.50;0.50;;;21.50;71.20;;;;;;5012335;28;20072;-59
2021/08/04 04:24:13;;;;;;;0.30;0.30;;;21.40;71.20;;;;;;5010642;28;20042;-57
2021/08/04 04:26:39;;;;;;;0.60;0.60;;;21.40;71.20;;;;;;5012376;28;20402;-59
2021/08/04 04:29:05;;;;;;;0.82;0.60;;;21.40;71.20;;;;;;5012649;28;20050;-58
2021/08/04 04:31:34;;;;;;;0.50;0.50;;;21.40;71.20;;;;;;5012463;28;20486;-54
2021/08/04 04:34:02;;;;;;;0.28;0.28;;;21.40;71.20;;;;;;5012492;28;20384;-60
2021/08/04 04:36:28;;;;;;;0.50;0.50;;;21.40;71.20;;;;;;5012256;28;20156;-59
2021/08/04 04:38:54;;;;;;;0.55;0.50;;;21.40;71.10;;;;;;5012054;28;20546;-58
2021/08/04 04:41:20;;;;;;;0.82;0.73;;;21.40;71.20;;;;;;5012611;28;20153;-59
2021/08/04 04:43:45;;;;;;;0.40;0.30;;;21.40;71.20;;;;;;5012282;28;20518;-56
2021/08/04 04:46:11;;;;;;;0.50;0.50;;;21.40;71.20;;;;;;5012175;28;20050;-59
2021/08/04 04:48:37;;;;;;;0.60;0.60;;;21.40;71.20;;;;;;5016230;28;20053;-54
2021/08/04 04:51:03;;;;;;;0.43;0.40;;;21.40;71.20;;;;;;5015919;28;20046;-54
2021/08/04 04:53:29;;;;;;;0.40;0.40;;;21.40;71.80;;;;;;5015215;28;20574;-60
2021/08/04 04:55:55;;;;;;;0.50;0.50;;;21.40;71.20;;;;;;5015599;28;20088;-60
2021/08/04 04:58:21;;;;;;;0.65;0.52;;;21.40;71.20;;;;;;5015732;28;20074;-60
2021/08/04 05:00:47;;;;;;;0.80;0.80;;;21.40;71.20;;;;;;5015841;28;20527;-58
2021/08/04 05:03:12;;;;;;;0.45;0.45;;;21.40;71.20;;;;;;5015232;28;20037;-56
2021/08/04 05:05:38;;;;;;;0.50;0.40;;;21.40;71.20;;;;;;5030864;28;20572;-58
2021/08/04 05:08:04;;;;;;;0.60;0.60;;;21.40;71.20;;;;;;5015307;28;20075;-56
2021/08/04 05:10:30;;;;;;;0.40;0.40;;;21.40;71.20;;;;;;5015304;28;20050;-58
2021/08/04 05:12:55;;;;;;;0.93;0.60;;;21.40;71.20;;;;;;5015189;28;20403;-54
2021/08/04 05:15:21;;;;;;;0.60;0.55;;;21.40;71.90;;;;;;5015429;28;20049;-53
2021/08/04 05:17:47;;;;;;;0.68;0.50;;;21.40;71.20;;;;;;5014431;28;20425;-58
2021/08/04 05:20:13;;;;;;;0.60;0.60;;;21.40;71.20;;;;;;5014603;28;20042;-53
2021/08/04 05:22:39;;;;;;;0.40;0.40;;;21.40;71.20;;;;;;5015345;28;20042;-59
2021/08/04 05:25:06;;;;;;;0.47;0.47;;;21.40;71.20;;;;;;5014966;28;20067;-59
2021/08/04 05:27:32;;;;;;;0.55;0.50;;;21.40;71.20;;;;;;5015107;28;20042;-56
2021/08/04 05:29:58;;;;;;;0.30;0.30;;;21.40;71.20;;;;;;5014698;28;20057;-57
2021/08/04 05:32:23;;;;;;;0.40;0.40;;;21.40;71.20;;;;;;5014623;28;20049;-59
2021/08/04 05:34:49;;;;;;;0.40;0.40;;;21.40;71.20;;;;;;5015360;28;20054;-58
2021/08/04 05:37:15;;;;;;;0.45;0.45;;;21.40;71.20;;;;;;5015138;28;20462;-56
2021/08/04 05:39:41;;;;;;;0.40;0.40;;;21.40;71.20;;;;;;5014562;28;20138;-54
2021/08/04 05:42:06;;;;;;;0.40;0.40;;;21.40;71.20;;;;;;5014294;28;20145;-55
2021/08/04 05:44:32;;;;;;;0.52;0.35;;;21.40;71.20;;;;;;5015119;28;20050;-60
2021/08/04 05:47:00;;;;;;;0.50;0.50;;;21.40;71.20;;;;;;5014752;28;20045;-54
2021/08/04 05:49:26;;;;;;;0.40;0.40;;;21.40;71.20;;;;;;5014607;28;20129;-59
2021/08/04 05:51:53;;;;;;;0.40;0.38;;;21.40;71.20;;;;;;5014278;28;20486;-57
2021/08/04 05:54:19;;;;;;;0.40;0.40;;;21.30;71.20;;;;;;5014838;28;20048;-59
2021/08/04 05:56:46;;;;;;;0.38;0.38;;;21.40;71.20;;;;;;5014571;28;20049;-53
2021/08/04 05:59:12;;;;;;;0.30;0.30;;;21.30;71.20;;;;;;5014626;28;20053;-51
2021/08/04 06:01:37;;;;;;;0.30;0.30;;;21.40;71.30;;;;;;5014165;28;20045;-53
2021/08/04 06:04:03;;;;;;;0.47;0.47;;;21.30;71.20;;;;;;5014569;28;20049;-53
2021/08/04 06:06:29;;;;;;;0.40;0.40;;;21.40;71.20;;;;;;5014504;28;20395;-53
2021/08/04 06:08:55;;;;;;;0.55;0.50;;;21.30;71.20;;;;;;5014747;28;20095;-53
2021/08/04 06:11:22;;;;;;;0.50;0.50;;;21.30;71.20;;;;;;5013556;28;20395;-52
2021/08/04 06:13:48;;;;;;;0.60;0.40;;;21.30;71.20;;;;;;5013692;28;20129;-52
2021/08/04 06:16:14;;;;;;;0.43;0.43;;;21.30;71.20;;;;;;5014297;28;20042;-53
2021/08/04 06:18:40;;;;;;;0.63;0.50;;;21.40;71.20;;;;;;5014088;28;20418;-53
2021/08/04 06:21:06;;;;;;;0.60;0.60;;;21.30;71.20;;;;;;5014266;28;20042;-50
2021/08/04 06:23:33;;;;;;;0.40;0.40;;;21.30;71.20;;;;;;5013989;28;20042;-52
2021/08/04 06:25:58;;;;;;;0.80;0.30;;;21.30;71.20;;;;;;5012975;28;20410;-53
2021/08/04 06:28:24;;;;;;;0.28;0.28;;;21.30;71.20;;;;;;5013867;28;20057;-52
2021/08/04 06:30:50;;;;;;;0.40;0.40;;;21.30;71.20;;;;;;5014055;28;20045;-51
2021/08/04 06:33:15;;;;;;;0.38;0.38;;;21.40;71.20;;;;;;5013654;28;20053;-52
2021/08/04 06:35:42;;;;;;;0.55;0.50;;;21.30;71.20;;;;;;5013894;28;20490;-51
2021/08/04 06:38:07;;;;;;;0.40;0.40;;;21.30;71.20;;;;;;5013469;28;20120;-53
2021/08/04 06:40:36;;;;;;;0.40;0.40;;;21.30;71.20;;;;;;5014082;28;20045;-53
2021/08/04 06:43:01;;;;;;;0.57;0.43;;;21.30;71.20;;;;;;5012993;28;20457;-54
2021/08/04 06:45:31;;;;;;;0.50;0.50;;;21.30;71.20;;;;;;5013492;28;20458;-51
2021/08/04 06:47:56;;;;;;;0.95;0.50;;;21.30;71.20;;;;;;5013709;28;20083;-52
2021/08/04 06:50:24;;;;;;;0.40;0.40;;;21.30;71.20;;;;;;5013743;28;20068;-53
2021/08/04 06:52:50;;;;;;;0.70;0.43;;;21.30;71.20;;;;;;5013529;28;20057;-51
2021/08/04 06:55:16;;;;;;;1.00;0.60;;;21.30;71.20;;;;;;5013716;28;20049;-52
2021/08/04 06:57:42;;;;;;;0.40;0.40;;;21.40;71.20;;;;;;5013352;28;20056;-52
2021/08/04 07:00:08;;;;;;;0.40;0.40;;;21.30;71.20;;;;;;5013065;28;20450;-52
2021/08/04 07:02:34;;;;;;;0.50;0.47;;;21.30;71.20;;;;;;5011438;28;20092;-51
2021/08/04 07:05:00;;;;;;;0.40;0.40;;;21.30;71.20;;;;;;5013485;28;20065;-53
2021/08/04 07:07:25;;;;;;;0.50;0.50;;;21.30;71.20;;;;;;5013190;28;20526;-53
2021/08/04 07:09:51;;;;;;;0.60;0.60;;;21.30;71.20;;;;;;5013224;28;20049;-53
2021/08/04 07:12:17;;;;;;;0.70;0.43;;;21.30;71.20;;;;;;5012967;28;20091;-47
2021/08/04 07:14:43;;;;;;;0.40;0.40;;;21.30;71.20;;;;;;5012724;28;20057;-51
2021/08/04 07:17:09;;;;;;;0.40;0.30;;;21.30;71.20;;;;;;5013043;28;20049;-52
2021/08/04 07:19:34;;;;;;;0.50;0.50;;;21.30;71.20;;;;;;5013203;28;20046;-53
2021/08/04 07:22:01;;;;;;;0.52;0.50;;;21.30;71.20;;;;;;5013047;28;20528;-49
2021/08/04 07:24:26;;;;;;;0.43;0.43;;;21.30;71.20;;;;;;5012829;28;20106;-53
2021/08/04 07:26:52;;;;;;;0.57;0.50;;;21.30;71.20;;;;;;5013289;28;20124;-53
2021/08/04 07:29:18;;;;;;;0.40;0.40;;;21.30;71.20;;;;;;5012971;28;20475;-54
2021/08/04 07:31:43;;;;;;;0.77;0.55;;;21.30;71.20;;;;;;5012822;28;20610;-54
2021/08/04 07:34:11;;;;;;;0.30;0.30;;;21.30;71.20;;;;;;5012758;28;20056;-54
2021/08/04 07:36:37;;;;;;;0.50;0.50;;;21.30;71.20;;;;;;5013010;28;20074;-51
2021/08/04 07:39:03;;;;;;;0.47;0.47;;;21.30;71.20;;;;;;5012808;28;20514;-51
2021/08/04 07:41:29;;;;;;;0.40;0.40;;;21.30;71.20;;;;;;5012552;28;20050;-52
2021/08/04 07:43:54;;;;;;;0.50;0.50;;;21.30;71.10;;;;;;5012937;28;20383;-53
2021/08/04 07:46:23;;;;;;;0.40;0.40;;;21.30;71.10;;;;;;5012659;28;20057;-50
2021/08/04 07:48:49;;;;;;;0.43;0.43;;;21.30;71.10;;;;;;5012715;28;20073;-52
2021/08/04 07:51:17;;;;;;;0.50;0.50;;;21.30;71.10;;;;;;4993442;28;20050;-52
2021/08/04 07:53:43;;;;;;;0.40;0.40;;;21.30;71.10;;;;;;5002120;28;20119;-53
2021/08/04 07:56:09;;;;;;;0.50;0.40;;;21.30;71.10;;;;;;5012948;28;20131;-57
2021/08/04 07:58:35;;;;;;;1.02;0.30;;;21.30;71.10;;;;;;5012972;28;20049;-52
2021/08/04 08:01:01;;;;;;;0.50;0.50;;;21.30;71.10;;;;;;5012471;28;20045;-53
2021/08/04 08:03:26;;;;;;;0.45;0.40;;;21.30;71.10;;;;;;5012252;28;20048;-55
2021/08/04 08:05:53;;;;;;;0.32;0.32;;;21.30;71.10;;;;;;5012769;28;20096;-56
2021/08/04 08:08:18;;;;;;;0.50;0.50;;;21.30;71.00;;;;;;5012656;28;20100;-54
2021/08/04 08:10:46;;;;;;;0.45;0.40;;;21.30;71.10;;;;;;5012545;28;20053;-54
2021/08/04 08:13:12;;;;;;;0.50;0.50;;;21.30;71.00;;;;;;5012277;28;20048;-55
2021/08/04 08:15:38;;;;;;;0.70;0.52;;;21.30;71.00;;;;;;5012763;28;20046;-53
2021/08/04 08:18:08;;;;;;;0.73;0.40;;;21.30;70.90;;;;;;5012291;28;20495;-53
2021/08/04 08:20:35;;;;;;;0.38;0.38;;;21.30;71.00;;;;;;5012319;28;20046;-53
2021/08/04 08:23:01;;;;;;;0.82;0.70;;;21.30;70.90;;;;;;5015519;28;20445;-54
2021/08/04 08:25:27;;;;;;;0.50;0.50;;;21.30;70.90;;;;;;5016087;28;20054;-52
2021/08/04 08:27:53;;;;;;;0.70;0.60;;;21.40;71.00;;;;;;5015182;28;20088;-57
2021/08/04 08:30:18;;;;;;;0.45;0.45;;;21.40;71.00;;;;;;5016493;28;20471;-57
2021/08/04 08:32:48;;;;;;;0.50;0.50;;;21.40;71.00;;;;;;5016034;28;20052;-60
2021/08/04 08:35:15;;;;;;;0.50;0.50;;;21.40;70.90;;;;;;5015433;28;20533;-53
2021/08/04 08:37:42;;;;;;;0.43;0.43;;;21.40;70.90;;;;;;5016175;28;20100;-55
2021/08/04 08:40:09;;;;;;;0.68;0.60;;;21.40;70.90;;;;;;5016201;28;20045;-53
2021/08/04 08:42:36;;;;;;;1.02;0.70;;;21.40;70.90;;;;;;5016102;28;20045;-54
2021/08/04 08:45:02;;;;;;;0.40;0.40;;;21.40;70.90;;;;;;5015512;28;20088;-54
2021/08/04 08:47:29;;;;;;;0.57;0.50;;;21.40;70.80;;;;;;5016074;28;20460;-53
2021/08/04 08:49:56;;;;;;;0.50;0.50;;;21.40;70.80;;;;;;5015337;28;20057;-60
2021/08/04 08:52:22;;;;;;;0.43;0.43;;;21.40;70.80;;;;;;5015982;28;20077;-60
2021/08/04 08:54:48;;;;;;;0.40;0.40;;;21.40;70.80;;;;;;5014136;28;20042;-56
2021/08/04 08:57:14;;;;;;;0.60;0.38;;;21.40;70.70;;;;;;5015941;28;20056;-58
2021/08/04 08:59:39;;;;;;;0.45;0.45;;;21.50;70.80;;;;;;5015864;28;20050;-59
2021/08/04 09:02:05;;;;;;;1.30;0.73;;;21.50;70.70;;;;;;5015871;28;20049;-54
2021/08/04 09:04:31;;;;;;;0.52;0.52;;;21.50;70.70;;;;;;5014690;28;20050;-54
2021/08/04 09:07:01;;;;;;;1.08;0.50;;;21.50;70.70;;;;;;5015382;28;20057;-60
2021/08/04 09:09:31;;;;;;;0.40;0.40;;;21.50;71.30;;;;;;5015683;28;20581;-56
2021/08/04 09:12:02;;;;;;;0.40;0.40;;;21.50;70.60;;;;;;5015666;28;20058;-60
2021/08/04 09:14:33;;;;;;;0.50;0.40;;;21.50;70.60;;;;;;5014787;28;20526;-59
2021/08/04 09:17:14;;;;;;;0.73;0.52;;;21.50;70.60;;;;;;5015622;28;20053;-56
2021/08/04 09:19:42;;;;;;;0.68;0.68;;;21.50;70.50;;;;;;5015484;28;20188;-58
2021/08/04 09:22:22;;;;;;;0.52;0.52;;;21.50;70.50;;;;;;5015065;28;20056;-59
2021/08/04 09:24:56;;;;;;;0.40;0.32;;;21.50;70.40;;;;;;5014816;28;20053;-59
2021/08/04 09:27:38;;;;;;;0.50;0.50;;;21.50;70.40;;;;;;5015343;28;20084;-59
2021/08/04 09:30:04;;;;;;;0.63;0.50;;;21.60;70.40;;;;;;5015270;28;20462;-60
2021/08/04 09:32:31;;;;;;;0.55;0.55;;;21.50;70.40;;;;;;5014826;28;20069;-60
2021/08/04 09:35:16;;;;;;;0.57;0.50;;;21.60;70.40;;;;;;5014779;28;20042;-60
2021/08/04 09:37:42;;;;;;;0.80;0.65;;;21.60;70.40;;;;;;4995229;28;20085;-57
2021/08/04 09:40:11;;;;;;;0.73;0.70;;;21.60;70.40;;;;;;4995459;28;20472;-60
2021/08/04 09:42:46;;;;;;;1.08;0.68;;;21.60;70.50;;;;;;4995470;28;20046;-57
2021/08/04 09:45:14;;;;;;;0.63;0.60;;;21.60;70.50;;;;;;5000164;28;20049;-59
2021/08/04 09:47:58;;;;;;;0.50;0.50;;;21.60;70.50;;;;;;5014592;28;20054;-57
2021/08/04 09:50:24;;;;;;;0.95;0.70;;;21.60;70.40;;;;;;4995367;28;20089;-59
2021/08/04 09:52:57;;;;;;;0.40;0.40;;;21.60;70.40;;;;;;4994832;28;20498;-57
2021/08/04 09:55:24;;;;;;;0.68;0.60;;;21.60;70.40;;;;;;4998817;28;20054;-56
2021/08/04 09:57:52;;;;;;;0.75;0.52;;;21.70;70.40;;;;;;5014497;28;20056;-57
2021/08/04 10:00:20;;;;;;;0.40;0.40;;;21.60;70.40;;;;;;5014530;28;20446;-59
2021/08/04 10:02:46;;;;;;;0.63;0.40;;;21.60;70.40;;;;;;5014717;28;20147;-61
2021/08/04 10:05:17;;;;;;;0.47;0.47;;;21.70;70.40;;;;;;5014338;28;20406;-59
2021/08/04 10:08:01;;;;;;;1.35;0.85;;;21.60;70.40;;;;;;5013822;28;20046;-60
2021/08/04 10:10:30;;;;;;;0.47;0.47;;;21.70;70.40;;;;;;5014575;28;20065;-57
2021/08/04 10:12:56;;;;;;;0.60;0.60;;;21.70;70.40;;;;;;5014427;28;20494;-57
2021/08/04 10:15:23;;;;;;;0.93;0.63;;;21.70;70.40;;;;;;5012486;28;20064;-57
2021/08/04 10:17:50;;;;;;;0.50;0.50;;;21.70;70.40;;;;;;5014089;28;20406;-57
2021/08/04 10:20:16;;;;;;;0.40;0.40;;;21.80;70.50;;;;;;5014058;28;20054;-53
2021/08/04 10:22:42;;;;;;;1.48;0.60;;;21.70;70.40;;;;;;5014282;28;20073;-55
2021/08/04 10:25:08;;;;;;;0.63;0.63;;;21.80;70.40;;;;;;5013844;28;20096;-59
2021/08/04 10:27:35;;;;;;;0.50;0.50;;;21.70;70.40;;;;;;5013924;28;20057;-55
2021/08/04 10:30:01;;;;;;;0.70;0.40;;;21.80;70.50;;;;;;5013717;28;20498;-58
2021/08/04 10:32:28;;;;;;;0.43;0.40;;;21.70;70.40;;;;;;5014159;28;20049;-59
2021/08/04 10:34:56;;;;;;;0.77;0.60;;;21.80;70.40;;;;;;5013949;28;20056;-59
2021/08/04 10:37:24;;;;;;;0.68;0.55;;;21.80;70.40;;;;;;5013762;28;20054;-57
2021/08/04 10:39:51;;;;;;;0.50;0.40;;;21.80;70.40;;;;;;5013351;28;20045;-59
2021/08/04 10:42:16;;;;;;;0.30;0.30;;;21.90;70.40;;;;;;5013885;28;20054;-57
2021/08/04 10:44:44;;;;;;;0.68;0.55;;;21.90;70.40;;;;;;5013217;28;20514;-56
2021/08/04 10:47:28;;;;;;;0.47;0.47;;;21.80;70.30;;;;;;5013550;28;20046;-57
2021/08/04 10:50:11;;;;;;;0.57;0.50;;;21.90;70.30;;;;;;5013415;28;20041;-58
2021/08/04 10:52:56;;;;;;;0.70;0.40;;;21.90;70.30;;;;;;5013231;28;20058;-60
2021/08/04 10:55:22;;;;;;;;;;;21.90;70.90;;;;;;5013248;28;20180;-59
2021/08/04 10:58:07;;;;;;;0.50;0.45;;;21.90;70.20;;;;;;5013260;28;19990;-59
2021/08/04 11:00:34;;;;;;;0.50;0.40;;;22.00;70.30;;;;;;5013157;28;20486;-56
2021/08/04 11:02:59;;;;;;;0.40;0.30;;;21.90;70.30;;;;;;5013578;28;20121;-56
2021/08/04 11:05:45;;;;;;;0.50;0.50;;;21.90;70.20;;;;;;5013701;28;20467;-58
2021/08/04 11:08:14;;;;;;;1.35;0.77;;;22.00;70.20;;;;;;5013147;28;20100;-58
2021/08/04 11:10:41;;;;;;;0.55;0.50;;;22.00;70.20;;;;;;5013034;28;20478;-60
2021/08/04 11:13:06;;;;;;;0.70;0.50;;;22.00;70.20;;;;;;5012835;28;20046;-57
2021/08/04 11:15:33;;;;;;;0.40;0.40;;;22.00;70.10;;;;;;5013496;28;20133;-55
2021/08/04 11:17:58;;;;;;;0.80;0.70;;;22.00;70.10;;;;;;5013257;28;20046;-58
2021/08/04 11:20:24;;;;;;;0.50;0.50;;;22.00;70.00;;;;;;5013266;28;20042;-55
2021/08/04 11:22:53;;;;;;;0.38;0.38;;;22.10;70.00;;;;;;5013010;28;20132;-55
2021/08/04 11:25:24;;;;;;;0.60;0.60;;;22.10;70.00;;;;;;5013155;28;20402;-53
2021/08/04 11:27:49;;;;;;;0.57;0.55;;;22.10;69.90;;;;;;5012511;28;20045;-54
2021/08/04 11:30:30;;;;;;;0.68;0.47;;;22.10;69.90;;;;;;5013266;28;20540;-53
2021/08/04 11:33:34;;;;;;;0.52;0.47;;;22.10;69.90;;;;;;5012899;28;20096;-55
2021/08/04 11:36:05;;;;;;;0.43;0.43;;;22.10;69.80;;;;;;4991380;28;20050;-53
2021/08/04 11:38:54;;;;;;;0.38;0.38;;;22.10;69.80;;;;;;5006213;28;20053;-50
2021/08/04 11:41:34;;;;;;;2.28;0.73;;;22.10;69.70;;;;;;4971839;28;20512;-54
2021/08/04 11:44:22;;;;;;;0.50;0.50;;;22.20;69.80;;;;;;4962916;28;20126;-52
2021/08/04 11:47:05;;;;;;;0.75;0.70;;;22.20;69.70;;;;;;4952617;28;20065;-53
2021/08/04 11:49:46;;;;;;;0.50;0.47;;;22.20;69.70;;;;;;4933541;29;20107;-54
2021/08/04 11:52:14;;;;;;;0.55;0.55;;;22.20;69.70;;;;;;4933321;29;20497;-53
2021/08/04 11:54:42;;;;;;;0.55;0.40;;;22.20;69.70;;;;;;4941192;29;20153;-52
2021/08/04 11:57:24;;;;;;;0.45;0.40;;;22.20;69.60;;;;;;4956101;28;20126;-56
2021/08/04 11:59:53;;;;;;;0.40;0.40;;;22.20;69.60;;;;;;4955753;29;20059;-55
2021/08/04 12:02:23;;;;;;;0.50;0.50;;;22.20;69.60;;;;;;4956233;29;20051;-56
2021/08/04 12:04:54;;;;;;;0.85;0.60;;;22.20;69.50;;;;;;4955990;28;20039;-54
2021/08/04 12:07:25;;;;;;;0.50;0.50;;;22.20;69.50;;;;;;4969971;28;20043;-56
2021/08/04 12:09:52;;;;;;;0.70;0.40;;;22.20;69.50;;;;;;4975726;28;20065;-54
2021/08/04 12:12:24;;;;;;;0.63;0.50;;;22.30;69.50;;;;;;4975628;28;20121;-52
2021/08/04 12:14:51;;;;;;;1.27;0.70;;;22.30;69.50;;;;;;4974910;28;20055;-52
2021/08/04 12:17:36;;;;;;;0.70;0.50;;;22.30;69.50;;;;;;4978019;28;20058;-52
2021/08/04 12:20:19;;;;;;;0.40;0.40;;;22.40;69.50;;;;;;4996742;28;20050;-54
2021/08/04 12:22:58;;;;;;;0.52;0.50;;;22.30;69.40;;;;;;4996950;28;20293;-53
2021/08/04 12:25:24;;;;;;;0.45;0.45;;;22.30;69.40;;;;;;4996946;28;20046;-54
2021/08/04 12:27:52;;;;;;;0.55;0.55;;;22.30;69.40;;;;;;5014058;28;20060;-51
2021/08/04 12:30:27;;;;;;;0.40;0.40;;;22.30;69.40;;;;;;5016029;28;20049;-53
2021/08/04 12:33:13;;;;;;;0.70;0.68;;;22.30;69.30;;;;;;5016424;28;20045;-53
2021/08/04 12:35:47;;;;;;;1.15;0.60;;;22.40;69.40;;;;;;5016176;28;20046;-53
2021/08/04 12:38:23;;;;;;;0.45;0.40;;;22.30;69.30;;;;;;5015602;28;20068;-53
2021/08/04 12:40:52;;;;;;;0.60;0.60;;;22.40;69.40;;;;;;5016172;28;20184;-52
2021/08/04 12:43:20;;;;;;;0.77;0.50;;;22.40;69.30;;;;;;5016215;28;20057;-53
2021/08/04 12:45:57;;;;;;;0.45;0.45;;;22.40;69.30;;;;;;5015700;28;20045;-53
2021/08/04 12:48:38;;;;;;;0.38;0.38;;;22.40;69.30;;;;;;5015265;28;20046;-55
2021/08/04 12:51:05;;;;;;;0.60;0.60;;;22.40;69.30;;;;;;5016022;28;20057;-54
2021/08/04 12:53:36;;;;;;;0.40;0.40;;;22.40;69.30;;;;;;5015876;28;20046;-54